createdAt,value
2022-11-16T00:02:24.325Z,93805.13
2022-11-16T00:05:32.960Z,93796.31
2022-11-16T00:08:44.031Z,93790.56
2022-11-16T00:11:54.488Z,93783.44
2022-11-16T00:15:04.570Z,93768.25
2022-11-16T00:18:13.028Z,93750.97
2022-11-16T00:21:21.314Z,93734.97
2022-11-16T00:24:29.577Z,93715.91
2022-11-16T00:27:37.923Z,93707.78
2022-11-16T00:30:47.918Z,93709.44
2022-11-16T00:33:56.137Z,93732.19
2022-11-16T00:37:04.585Z,93725.66
2022-11-16T00:40:14.034Z,93738.88
2022-11-16T00:43:22.421Z,93750.03
2022-11-16T00:46:32.551Z,93763.06
2022-11-16T00:49:40.780Z,93754.13
2022-11-16T00:52:49.011Z,93754.13
2022-11-16T00:55:57.425Z,93748.06
2022-11-16T00:59:06.341Z,93748.88
2022-11-16T01:02:17.019Z,93758.22
2022-11-16T01:05:25.703Z,93748.28
2022-11-16T01:08:36.315Z,93751.56
2022-11-16T01:12:02.717Z,93749.13
2022-11-16T01:15:12.265Z,93741.19
2022-11-16T01:18:22.168Z,93731.66
2022-11-16T01:21:30.556Z,93734.47
2022-11-16T01:24:38.904Z,93718.63
2022-11-16T01:27:47.216Z,93715.59
2022-11-16T01:31:06.319Z,93716.38
2022-11-16T01:34:19.146Z,93707.41
2022-11-16T01:37:28.520Z,93699.69
2022-11-16T01:40:38.211Z,93693.16
2022-11-16T01:43:59.858Z,93695.00
2022-11-16T01:47:16.203Z,93699.84
2022-11-16T01:50:26.949Z,93694.38
2022-11-16T01:53:36.113Z,93699.66
2022-11-16T01:56:48.251Z,93710.88
2022-11-16T02:00:11.341Z,93704.16
2022-11-16T02:03:24.426Z,93697.84
2022-11-16T02:06:57.860Z,93697.25
2022-11-16T02:10:21.482Z,93705.00
2022-11-16T02:13:46.779Z,93683.03
2022-11-16T02:17:05.771Z,93680.81
2022-11-16T02:20:52.628Z,93669.59
2022-11-16T02:24:41.558Z,93668.34
2022-11-16T02:28:14.776Z,93670.59
2022-11-16T02:31:31.954Z,93673.69
2022-11-16T02:34:46.384Z,93669.19
2022-11-16T02:38:01.394Z,93679.34
2022-11-16T02:41:16.522Z,93675.66
2022-11-16T02:44:33.924Z,93678.53
2022-11-16T02:47:47.120Z,93678.75
2022-11-16T02:50:58.103Z,93665.75
2022-11-16T02:54:14.878Z,93660.28
2022-11-16T02:57:52.886Z,93656.22
2022-11-16T03:01:07.500Z,93659.00
2022-11-16T03:04:28.456Z,93673.88
2022-11-16T03:07:53.283Z,93676.34
2022-11-16T03:11:23.669Z,93673.72
2022-11-16T03:14:43.046Z,93679.22
2022-11-16T03:17:52.385Z,93665.38
2022-11-16T03:21:14.879Z,93666.00
2022-11-16T03:24:25.132Z,93665.19
2022-11-16T03:27:45.727Z,93671.69
2022-11-16T03:31:02.398Z,93679.41
2022-11-16T03:34:20.079Z,93697.31
2022-11-16T03:37:33.010Z,93705.03
2022-11-16T03:40:45.420Z,93699.75
2022-11-16T03:43:56.336Z,93691.59
2022-11-16T03:47:05.258Z,93698.53
2022-11-16T03:50:15.016Z,93698.91
2022-11-16T03:53:27.133Z,93709.72
2022-11-16T03:56:35.685Z,93706.66
2022-11-16T03:59:45.372Z,93706.03
2022-11-16T04:02:53.768Z,93705.44
2022-11-16T04:06:21.310Z,93705.44
2022-11-16T04:09:49.495Z,93723.34
2022-11-16T04:13:16.766Z,93739.56
2022-11-16T04:16:42.842Z,93741.81
2022-11-16T04:20:08.704Z,93757.25
2022-11-16T04:23:36.225Z,93744.25
2022-11-16T04:27:09.003Z,93749.25
2022-11-16T04:30:18.107Z,93754.13
2022-11-16T04:33:45.188Z,93759.16
2022-11-16T04:37:13.785Z,93763.66
2022-11-16T04:40:25.442Z,93778.28
2022-11-16T04:43:35.719Z,93783.56
2022-11-16T04:47:01.657Z,93789.28
2022-11-16T04:50:10.874Z,93780.75
2022-11-16T04:53:22.570Z,93789.91
2022-11-16T04:56:38.077Z,93797.69
2022-11-16T04:59:48.579Z,93798.03
2022-11-16T05:03:01.015Z,93800.97
2022-11-16T05:06:10.095Z,93797.69
2022-11-16T05:09:20.230Z,93801.59
2022-11-16T05:12:30.644Z,93806.63
2022-11-16T05:15:46.921Z,93806.88
2022-11-16T05:19:09.339Z,93815.00
2022-11-16T05:22:18.475Z,93816.44
2022-11-16T05:25:32.528Z,93813.97
2022-11-16T05:28:45.601Z,93810.75
2022-11-16T05:31:57.258Z,93822.53
2022-11-16T05:35:07.304Z,93819.69
2022-11-16T05:38:15.936Z,93808.09
2022-11-16T05:41:28.088Z,93820.31
2022-11-16T05:44:36.777Z,93814.41
2022-11-16T05:47:47.251Z,93816.03
2022-11-16T05:50:59.742Z,93828.63
2022-11-16T05:54:12.665Z,93821.31
2022-11-16T05:57:21.755Z,93824.78
2022-11-16T06:00:30.176Z,93826.22
2022-11-16T06:03:41.782Z,93824.38
2022-11-16T06:06:50.419Z,93830.28
2022-11-16T06:10:00.332Z,93825.19
2022-11-16T06:13:09.021Z,93829.47
2022-11-16T06:16:17.932Z,93836.41
2022-11-16T06:19:32.149Z,93836.97
2022-11-16T06:22:41.172Z,93834.75
2022-11-16T06:25:55.179Z,93825.81
2022-11-16T06:29:06.569Z,93826.81
2022-11-16T06:32:16.205Z,93840.25
2022-11-16T06:35:26.031Z,93833.53
2022-11-16T06:38:35.158Z,93835.34
2022-11-16T06:41:44.565Z,93830.28
2022-11-16T06:44:54.393Z,93826.56
2022-11-16T06:48:07.539Z,93827.19
2022-11-16T06:51:17.478Z,93832.47
2022-11-16T06:54:25.822Z,93822.28
2022-11-16T06:57:35.554Z,93829.84
2022-11-16T07:00:45.045Z,93831.66
2022-11-16T07:03:54.248Z,93835.69
2022-11-16T07:07:04.307Z,93834.69
2022-11-16T07:10:15.625Z,93834.28
2022-11-16T07:13:24.844Z,93825.53
2022-11-16T07:16:35.678Z,93831.19
2022-11-16T07:19:44.703Z,93830.38
2022-11-16T07:22:54.484Z,93832.78
2022-11-16T07:26:05.276Z,93832.16
2022-11-16T07:29:22.782Z,93830.53
2022-11-16T07:33:02.353Z,93825.97
2022-11-16T07:36:42.754Z,93822.63
2022-11-16T07:39:53.511Z,93824.03
2022-11-16T07:43:03.101Z,93828.69
2022-11-16T07:46:48.351Z,93827.25
2022-11-16T07:49:57.874Z,93826.53
2022-11-16T07:53:08.993Z,93826.94
2022-11-16T07:56:19.326Z,93830.16
2022-11-16T07:59:28.502Z,93831.13
2022-11-16T08:02:37.164Z,93832.94
2022-11-16T08:05:45.680Z,93829.03
2022-11-16T08:08:58.292Z,93830.59
2022-11-16T08:12:09.115Z,93831.97
2022-11-16T08:15:18.405Z,93831.06
2022-11-16T08:18:28.451Z,93830.59
2022-11-16T08:21:37.580Z,93838.91
2022-11-16T08:24:46.077Z,93844.00
2022-11-16T08:27:56.227Z,93842.50
2022-11-16T08:31:10.457Z,93843.50
2022-11-16T08:34:19.888Z,93848.22
2022-11-16T08:37:32.319Z,93844.34
2022-11-16T08:40:41.030Z,93849.03
2022-11-16T08:43:53.263Z,93850.47
2022-11-16T08:47:03.158Z,93846.44
2022-11-16T08:50:19.940Z,93846.59
2022-11-16T08:53:28.233Z,93846.78
2022-11-16T08:56:36.574Z,93849.38
2022-11-16T08:59:47.427Z,93849.66
2022-11-16T09:02:56.010Z,93848.75
2022-11-16T09:06:04.207Z,93841.00
2022-11-16T09:09:12.666Z,93851.41
2022-11-16T09:12:20.995Z,93849.06
2022-11-16T09:15:30.601Z,93855.06
2022-11-16T09:18:39.127Z,93859.06
2022-11-16T09:21:47.271Z,93853.00
2022-11-16T09:24:55.450Z,93858.41
2022-11-16T09:28:03.756Z,93857.28
2022-11-16T09:31:14.762Z,93862.00
2022-11-16T09:34:25.554Z,93858.69
2022-11-16T09:37:33.748Z,93864.06
2022-11-16T09:40:47.134Z,93855.91
2022-11-16T09:44:07.138Z,93858.06
2022-11-16T09:47:22.157Z,93869.06
2022-11-16T09:50:45.467Z,93864.56
2022-11-16T09:54:01.396Z,93867.53
2022-11-16T09:57:16.085Z,93864.13
2022-11-16T10:00:25.285Z,93878.59
2022-11-16T10:03:47.423Z,93873.13
2022-11-16T10:07:02.180Z,93874.84
2022-11-16T10:10:14.795Z,93873.94
2022-11-16T10:13:46.061Z,93866.63
2022-11-16T10:17:05.567Z,93873.13
2022-11-16T10:20:38.476Z,93864.56
2022-11-16T10:24:25.124Z,93858.97
2022-11-16T10:28:10.075Z,93868.63
2022-11-16T10:31:29.583Z,93868.41
2022-11-16T10:34:50.483Z,93869.22
2022-11-16T10:38:03.924Z,93862.13
2022-11-16T10:41:23.947Z,93866.22
2022-11-16T10:44:41.990Z,93857.00
2022-11-16T10:47:59.334Z,93861.38
2022-11-16T10:51:09.853Z,93856.00
2022-11-16T10:54:20.144Z,93858.56
2022-11-16T10:57:55.931Z,93867.59
2022-11-16T11:01:04.322Z,93854.31
2022-11-16T11:04:17.906Z,93857.94
2022-11-16T11:07:33.760Z,93853.56
2022-11-16T11:10:44.052Z,93856.81
2022-11-16T11:14:10.291Z,93851.41
2022-11-16T11:17:19.300Z,93852.50
2022-11-16T11:20:27.500Z,93853.47
2022-11-16T11:24:10.641Z,93838.53
2022-11-16T11:27:33.553Z,93844.59
2022-11-16T11:30:41.878Z,93848.47
2022-11-16T11:33:55.070Z,93834.66
2022-11-16T11:37:07.878Z,93840.09
2022-11-16T11:40:22.770Z,93840.34
2022-11-16T11:43:35.051Z,93843.84
2022-11-16T11:47:50.424Z,93856.09
2022-11-16T11:50:25.782Z,93849.38
2022-11-16T11:53:48.418Z,93852.03
2022-11-16T11:56:56.707Z,93852.16
2022-11-16T12:00:09.181Z,93860.38
2022-11-16T12:03:53.652Z,93857.63
2022-11-16T12:07:16.123Z,93854.47
2022-11-16T12:10:39.767Z,93847.06
2022-11-16T12:14:06.499Z,93838.94
2022-11-16T12:17:29.055Z,93842.41
2022-11-16T12:20:54.540Z,93847.97
2022-11-16T12:24:35.692Z,93841.50
2022-11-16T12:27:57.836Z,93856.09
2022-11-16T12:31:39.890Z,93853.09
2022-11-16T12:35:09.412Z,93844.97
2022-11-16T12:38:40.859Z,93846.03
2022-11-16T12:42:29.239Z,93847.06
2022-11-16T12:45:59.859Z,93842.66
2022-11-16T12:50:04.087Z,93833.94
2022-11-16T12:53:39.529Z,93838.22
2022-11-16T12:57:01.081Z,93831.53
2022-11-16T13:00:12.935Z,93825.94
2022-11-16T13:03:33.696Z,93830.78
2022-11-16T13:06:53.456Z,93823.59
2022-11-16T13:10:13.847Z,93825.91
2022-11-16T13:13:36.338Z,93823.72
2022-11-16T13:16:47.485Z,93823.53
2022-11-16T13:20:19.643Z,93814.41
2022-11-16T13:23:46.887Z,93812.28
2022-11-16T13:27:16.869Z,93807.78
2022-11-16T13:30:34.605Z,93819.94
2022-11-16T13:33:51.344Z,93815.28
2022-11-16T13:37:02.256Z,93820.75
2022-11-16T13:40:30.009Z,93809.84
2022-11-16T13:43:38.395Z,93818.13
2022-11-16T13:46:57.320Z,93818.72
2022-11-16T13:50:18.531Z,93811.16
2022-11-16T13:57:08.216Z,93810.03
2022-11-16T14:00:25.291Z,93805.78
2022-11-16T14:03:39.299Z,93806.25
2022-11-16T14:07:00.759Z,93805.47
2022-11-16T14:10:09.195Z,93794.34
2022-11-16T14:13:40.684Z,93794.25
2022-11-16T14:16:52.915Z,93801.91
2022-11-16T14:20:01.138Z,93787.88
2022-11-16T14:23:25.066Z,93788.44
2022-11-16T14:26:51.542Z,93795.50
2022-11-16T14:30:16.638Z,93786.81
2022-11-16T14:33:34.195Z,93787.25
2022-11-16T14:36:46.115Z,93784.00
2022-11-16T14:40:02.810Z,93770.34
2022-11-16T14:43:22.897Z,93777.31
2022-11-16T14:46:39.378Z,93780.31
2022-11-16T14:49:49.197Z,93776.81
2022-11-16T14:53:04.606Z,93776.34
2022-11-16T14:56:15.386Z,93778.81
2022-11-16T14:59:23.596Z,93771.75
2022-11-16T15:02:34.285Z,93766.06
2022-11-16T15:05:45.926Z,93764.56
2022-11-16T15:09:00.401Z,93761.59
2022-11-16T15:12:35.117Z,93767.63
2022-11-16T15:15:47.382Z,93769.97
2022-11-16T15:19:02.928Z,93756.09
2022-11-16T15:22:18.888Z,93758.56
2022-11-16T15:25:32.407Z,93756.88
2022-11-16T15:28:45.795Z,93761.94
2022-11-16T15:31:57.499Z,93754.44
2022-11-16T15:35:08.422Z,93747.13
2022-11-16T15:38:22.003Z,93744.34
2022-11-16T15:41:30.316Z,93747.72
2022-11-16T15:44:39.222Z,93743.75
2022-11-16T15:47:48.408Z,93748.34
2022-11-16T15:51:05.813Z,93754.63
2022-11-16T15:54:22.326Z,93750.28
2022-11-16T15:57:30.683Z,93750.44
2022-11-16T16:00:39.582Z,93761.97
2022-11-16T16:03:58.802Z,93754.94
2022-11-16T16:07:10.289Z,93754.41
2022-11-16T16:10:26.641Z,93753.53
2022-11-16T16:13:38.354Z,93755.06
2022-11-16T16:16:52.952Z,93757.72
2022-11-16T16:20:04.019Z,93759.50
2022-11-16T16:23:17.318Z,93759.03
2022-11-16T16:26:25.517Z,93753.06
2022-11-16T16:29:33.658Z,93757.81
2022-11-16T16:32:41.920Z,93754.94
2022-11-16T16:35:51.005Z,93747.31
2022-11-16T16:39:00.587Z,93749.44
2022-11-16T16:42:18.131Z,93742.09
2022-11-16T16:45:37.228Z,93746.06
2022-11-16T16:48:45.456Z,93748.75
2022-11-16T16:51:53.625Z,93749.59
2022-11-16T16:55:03.230Z,93753.69
2022-11-16T16:58:13.819Z,93756.97
2022-11-16T17:01:22.069Z,93753.34
2022-11-16T17:04:30.308Z,93753.56
2022-11-16T17:07:40.760Z,93749.47
2022-11-16T17:10:52.575Z,93750.94
2022-11-16T17:14:01.070Z,93751.16
2022-11-16T17:17:10.401Z,93748.31
2022-11-16T17:20:18.813Z,93742.63
2022-11-16T17:23:30.261Z,93745.28
2022-11-16T17:26:41.126Z,93742.81
2022-11-16T17:29:49.332Z,93745.28
2022-11-16T17:32:57.514Z,93736.53
2022-11-16T17:36:07.879Z,93742.59
2022-11-16T17:39:16.721Z,93743.59
2022-11-16T17:42:26.301Z,93736.88
2022-11-16T17:45:34.456Z,93742.13
2022-11-16T17:48:45.222Z,93748.81
2022-11-16T17:51:53.387Z,93739.66
2022-11-16T17:55:01.689Z,93727.66
2022-11-16T17:58:11.139Z,93722.38
2022-11-16T18:01:20.477Z,93726.03
2022-11-16T18:04:28.825Z,93722.59
2022-11-16T18:07:38.463Z,93722.41
2022-11-16T18:10:46.623Z,93724.84
2022-11-16T18:13:58.283Z,93724.84
2022-11-16T18:17:06.720Z,93720.38
2022-11-16T18:20:15.254Z,93719.31
2022-11-16T18:23:23.413Z,93703.00
2022-11-16T18:26:31.677Z,93699.16
2022-11-16T18:29:41.279Z,93705.63
2022-11-16T18:32:50.414Z,93699.34
2022-11-16T18:35:58.593Z,93702.34
2022-11-16T18:39:09.031Z,93694.47
2022-11-16T18:42:17.298Z,93690.16
2022-11-16T18:45:27.166Z,93681.84
2022-11-16T18:48:35.999Z,93683.22
2022-11-16T18:51:44.446Z,93670.22
2022-11-16T18:54:52.703Z,93664.97
2022-11-16T18:58:01.002Z,93675.47
2022-11-16T19:01:14.340Z,93670.38
2022-11-16T19:04:22.812Z,93671.00
2022-11-16T19:07:31.216Z,93655.81
2022-11-16T19:10:40.218Z,93657.81
2022-11-16T19:13:55.054Z,93662.09
2022-11-16T19:17:05.270Z,93659.63
2022-11-16T19:20:15.104Z,93659.19
2022-11-16T19:23:23.377Z,93653.44
2022-11-16T19:26:31.790Z,93663.34
2022-11-16T19:29:40.495Z,93652.78
2022-11-16T19:32:50.187Z,93652.97
2022-11-16T19:36:00.693Z,93642.25
2022-11-16T19:39:09.118Z,93646.69
2022-11-16T19:42:17.315Z,93636.78
2022-11-16T19:45:25.495Z,93632.69
2022-11-16T19:48:35.818Z,93625.78
2022-11-16T19:51:43.996Z,93619.69
2022-11-16T19:54:52.292Z,93622.47
2022-11-16T19:58:00.675Z,93618.84
2022-11-16T20:01:12.910Z,93622.03
2022-11-16T20:04:23.016Z,93612.69
2022-11-16T20:07:32.212Z,93604.16
2022-11-16T20:10:40.485Z,93606.16
2022-11-16T20:13:53.126Z,93600.69
2022-11-16T20:17:02.368Z,93606.88
2022-11-16T20:20:13.203Z,93601.50
2022-11-16T20:23:21.614Z,93593.81
2022-11-16T20:26:34.031Z,93595.78
2022-11-16T20:29:43.382Z,93590.44
2022-11-16T20:32:52.285Z,93598.28
2022-11-16T20:36:08.375Z,93598.31
2022-11-16T20:39:20.084Z,93596.09
2022-11-16T20:42:31.304Z,93594.44
2022-11-16T20:45:39.719Z,93592.31
2022-11-16T20:48:48.310Z,93588.44
2022-11-16T20:51:58.618Z,93592.63
2022-11-16T20:55:08.168Z,93586.00
2022-11-16T20:58:22.411Z,93590.19
2022-11-16T21:01:32.231Z,93582.50
2022-11-16T21:04:40.455Z,93583.69
2022-11-16T21:07:50.348Z,93575.16
2022-11-16T21:10:58.908Z,93576.16
2022-11-16T21:14:18.795Z,93580.34
2022-11-16T21:17:27.107Z,93590.56
2022-11-16T21:20:35.413Z,93589.44
2022-11-16T21:23:51.394Z,93590.47
2022-11-16T21:26:59.788Z,93597.25
2022-11-16T21:30:09.592Z,93599.88
2022-11-16T21:33:18.015Z,93606.28
2022-11-16T21:36:28.497Z,93611.72
2022-11-16T21:39:38.451Z,93616.88
2022-11-16T21:42:47.459Z,93615.59
2022-11-16T21:46:03.990Z,93604.06
2022-11-16T21:49:12.432Z,93588.94
2022-11-16T21:52:20.719Z,93587.50
2022-11-16T21:55:30.607Z,93595.94
2022-11-16T21:58:40.494Z,93571.28
2022-11-16T22:02:01.123Z,93549.69
2022-11-16T22:05:28.704Z,93560.13
2022-11-16T22:08:37.048Z,93562.53
2022-11-16T22:11:46.842Z,93557.28
2022-11-16T22:14:55.386Z,93556.41
2022-11-16T22:18:04.345Z,93556.00
2022-11-16T22:21:13.094Z,93555.00
2022-11-16T22:24:21.249Z,93556.00
2022-11-16T22:27:30.846Z,93552.38
2022-11-16T22:30:38.979Z,93559.06
2022-11-16T22:33:47.139Z,93565.91
2022-11-16T22:36:55.442Z,93573.53
2022-11-16T22:40:04.095Z,93559.78
2022-11-16T22:43:14.980Z,93544.81
2022-11-16T22:46:23.283Z,93553.00
2022-11-16T22:49:31.529Z,93547.16
2022-11-16T22:52:39.769Z,93537.25
2022-11-16T22:55:47.943Z,93534.25
2022-11-16T22:58:58.302Z,93528.34
2022-11-16T23:02:06.541Z,93524.50
2022-11-16T23:05:14.814Z,93531.28
2022-11-16T23:08:24.916Z,93534.38
2022-11-16T23:11:50.875Z,93533.13
2022-11-16T23:15:17.973Z,93524.47
2022-11-16T23:18:26.216Z,93519.16
2022-11-16T23:21:52.137Z,93509.84
2022-11-16T23:25:18.392Z,93501.22
2022-11-16T23:28:27.218Z,93496.09
2022-11-16T23:31:37.092Z,93494.81
2022-11-16T23:34:45.274Z,93493.28
2022-11-16T23:37:57.883Z,93490.84
2022-11-16T23:41:20.592Z,93480.31
2022-11-16T23:44:28.970Z,93473.81
2022-11-16T23:47:38.810Z,93475.56
2022-11-16T23:50:47.801Z,93476.56
2022-11-16T23:53:56.498Z,93472.81
2022-11-16T23:57:05.404Z,93475.53
